Saint-Yan, France

3:02 AM CEST on October 25, 2014 (GMT +0200)
Saint Yan | Change Station
CLOSE
Current Station
Airport
Location: Saint-Yan,
Elevation: 801 ft
Nearby Weather Stations

Elev 801 ft 46.41 °N, 4.02 °E | Updated 32 minutes ago

Clear
Clear
50 °F
Feels Like 50 °F
N
0
Wind Variable Wind from North

Today
High -- | Low -- °F
--% Chance of Precip.
Yesterday
High -- | Low -- °F
Precip. -- in
8:14 AM 6:40 PM
New Moon, 1% visible
Pressure 30.09 in
Visibility 6.2 miles
Clouds
Dew Point 48 °F
Humidity 94%
Rainfall 0.00 in
Snow Depth Not available.
UV Not available.
Pollen Not available.
Air Quality Not available.
Flu Activity Not available.
METAR LFLN 250030Z AUTO 00000KT 9999 NSC 10/09 Q1019

More Conditions Fewer Conditions

Pressure 30.09 in
Visibility 6.2 miles
Clouds
Dew Point 48 °F
Humidity 94%
Rainfall 0.00 in
Snow Depth Not available.
UV Not available.
Pollen Not available.
Air Quality Not available.
Flu Activity Not available.
METAR LFLN 250030Z AUTO 00000KT 9999 NSC 10/09 Q1019

More Conditions Fewer Conditions

10-Day Weather Forecast

Almanac

Astronomy

Oct. 25, 2014 Rise Set
Actual Time 8:14 AM CEST 6:40 PM CEST
Civil Twilight 7:43 AM CEST 7:11 PM CEST
Nautical Twilight 7:08 AM CEST 7:46 PM CEST
Astronomical Twilight 6:33 AM CEST 8:21 PM CEST
Moon 9:42 AM CEST 7:47 PM CEST
Length of Visible Light 11h 27m
Length of Day
10h 25m
Tomorrow will be 3m 3s shorter.
New Moon, 1% of the Moon is Illuminated
Oct 24
New Moon
Oct 30
First Quarter
Nov 6
Full
Nov 14
Last Quarter
Nov 22
New

Yesterday's Extremes

Country Highs Country Lows

Community

WunderPhotos

Upload Photos

1,764,737 photos uploaded!

WunderBlogs® & News

Nearby

Snow Depth

Not available.

Earthquake Activity

City Distance Mag. Time & Date
No recent earthquake activity has been reported nearby.
Minimum magnitude displayed is 2.5.

Coastal Water Temperatures

Place Temperature
No Stations Reporting

Nearby Weather Stations